createdAt,value
2023-01-27T00:09:09.842Z,99844.09
2023-01-27T00:19:11.378Z,99833.59
2023-01-27T00:29:12.902Z,99830.91
2023-01-27T00:39:16.404Z,99842.63
2023-01-27T00:49:18.150Z,99849.13
2023-01-27T00:59:19.568Z,99863.00
2023-01-27T01:09:21.084Z,99862.78
2023-01-27T01:19:22.904Z,99876.19
2023-01-27T01:29:24.427Z,99868.44
2023-01-27T01:39:25.804Z,99876.81
2023-01-27T01:49:35.461Z,99868.75
2023-01-27T01:59:40.132Z,99876.09
2023-01-27T02:09:41.560Z,99875.22
2023-01-27T02:20:03.034Z,99875.38
2023-01-27T02:30:04.695Z,99880.28
2023-01-27T02:40:06.548Z,99877.16
2023-01-27T02:50:08.476Z,99880.19
2023-01-27T03:00:13.108Z,99874.72
2023-01-27T03:10:14.531Z,99886.63
2023-01-27T03:20:16.071Z,99897.81
2023-01-27T03:30:17.487Z,99900.38
2023-01-27T03:40:37.593Z,99903.56
2023-01-27T03:50:43.037Z,99913.38
2023-01-27T04:00:45.989Z,99911.53
2023-01-27T04:11:07.349Z,99912.03
2023-01-27T04:21:08.734Z,99903.19
2023-01-27T04:31:10.215Z,99908.38
2023-01-27T04:41:11.917Z,99916.41
2023-01-27T04:51:13.302Z,99919.22
2023-01-27T05:01:14.667Z,99926.91
2023-01-27T05:11:16.212Z,99941.13
2023-01-27T05:21:22.326Z,99940.75
2023-01-27T05:31:25.730Z,99951.28
2023-01-27T05:41:28.787Z,99960.97
2023-01-27T05:51:31.057Z,99958.31
2023-01-27T06:01:33.577Z,99962.84
2023-01-27T06:11:34.960Z,99971.03
2023-01-27T06:21:36.356Z,99972.91
2023-01-27T06:31:38.288Z,99975.38
2023-01-27T06:41:39.753Z,99976.38
2023-01-27T06:51:41.140Z,100000.50
2023-01-27T07:01:42.610Z,99996.81
2023-01-27T07:11:44.800Z,100008.56
2023-01-27T07:21:46.277Z,100000.50
2023-01-27T07:31:47.869Z,100019.78
2023-01-27T07:41:49.624Z,100017.25
2023-01-27T07:51:51.044Z,100030.28
2023-01-27T08:01:52.428Z,100040.69
2023-01-27T08:11:53.795Z,100028.09
2023-01-27T08:21:55.225Z,100031.59
2023-01-27T08:31:56.616Z,100036.13
2023-01-27T08:41:58.009Z,100038.59
2023-01-27T08:51:59.399Z,100043.78
2023-01-27T09:02:00.794Z,100047.91
2023-01-27T09:12:02.176Z,100043.69
2023-01-27T09:22:03.560Z,100051.00
2023-01-27T09:32:05.377Z,100071.78
2023-01-27T09:42:14.389Z,100089.72
2023-01-27T09:52:54.435Z,100098.63
2023-01-27T10:03:01.361Z,100125.50
2023-01-27T10:13:25.094Z,100109.38
2023-01-27T10:23:54.387Z,100118.97
2023-01-27T10:33:56.816Z,100108.38
2023-01-27T10:44:21.948Z,100117.72
2023-01-27T10:54:36.093Z,100114.34
2023-01-27T11:04:44.629Z,100118.00
2023-01-27T11:14:48.048Z,100117.34
2023-01-27T11:24:59.276Z,100118.19
2023-01-27T11:35:11.625Z,100104.75
2023-01-27T11:45:17.375Z,100078.19
2023-01-27T11:55:24.902Z,100081.53
2023-01-27T12:05:37.851Z,100075.16
2023-01-27T12:15:39.389Z,100061.03
2023-01-27T12:25:47.907Z,100067.44
2023-01-27T12:35:50.974Z,100057.69
2023-01-27T12:46:18.690Z,100044.94
2023-01-27T12:56:21.328Z,100049.81
2023-01-27T13:06:49.614Z,100054.53
2023-01-27T13:16:55.567Z,100067.84
2023-01-27T13:27:05.546Z,100072.13
2023-01-27T13:37:14.371Z,100082.91
2023-01-27T13:47:18.255Z,100083.78
2023-01-27T13:57:51.867Z,100087.50
2023-01-27T14:08:14.309Z,100098.31
2023-01-27T14:18:23.875Z,100105.72
2023-01-27T14:28:46.736Z,100105.75
2023-01-27T14:39:05.360Z,100105.09
2023-01-27T14:49:21.822Z,100110.13
2023-01-27T15:00:17.984Z,100106.78
2023-01-27T15:10:28.828Z,100121.03
2023-01-27T15:21:07.649Z,100139.13
2023-01-27T15:31:15.285Z,100153.69
2023-01-27T15:41:16.797Z,100168.75
2023-01-27T15:51:19.402Z,100173.41
2023-01-27T16:01:30.658Z,100182.63
2023-01-27T16:11:31.891Z,100188.47
2023-01-27T16:21:54.933Z,100209.03
2023-01-27T16:32:00.919Z,100205.97
2023-01-27T16:42:03.154Z,100226.25
2023-01-27T16:52:04.848Z,100230.53
2023-01-27T17:02:13.663Z,100229.84
2023-01-27T17:12:36.551Z,100239.53
2023-01-27T17:22:42.636Z,100248.38
2023-01-27T17:32:46.504Z,100253.19
2023-01-27T17:42:48.208Z,100243.81
2023-01-27T17:52:52.779Z,100253.13
2023-01-27T18:03:00.193Z,100248.09
2023-01-27T18:13:11.206Z,100249.56
2023-01-27T18:23:14.692Z,100261.28
2023-01-27T18:33:16.643Z,100259.59
2023-01-27T18:43:18.173Z,100265.25
2023-01-27T18:53:20.353Z,100277.28
2023-01-27T19:03:23.307Z,100288.13
2023-01-27T19:13:24.867Z,100290.78
2023-01-27T19:23:26.338Z,100299.63
2023-01-27T19:33:28.208Z,100284.22
2023-01-27T19:43:29.650Z,100283.81
2023-01-27T19:53:31.021Z,100292.59
2023-01-27T20:03:32.410Z,100304.03
2023-01-27T20:13:33.804Z,100327.88
2023-01-27T20:23:35.196Z,100331.09
2023-01-27T20:33:36.595Z,100331.28
2023-01-27T20:43:38.134Z,100324.94
2023-01-27T20:53:45.232Z,100327.91
2023-01-27T21:03:47.634Z,100341.31
2023-01-27T21:13:49.706Z,100351.16
2023-01-27T21:23:51.388Z,100347.22
2023-01-27T21:33:52.975Z,100343.50
2023-01-27T21:44:12.658Z,100356.56
2023-01-27T21:54:14.191Z,100341.28
2023-01-27T22:04:16.267Z,100353.25
2023-01-27T22:14:17.794Z,100351.16
2023-01-27T22:24:19.368Z,100352.78
2023-01-27T22:34:20.775Z,100350.91
2023-01-27T22:44:22.183Z,100349.47
2023-01-27T22:54:23.611Z,100348.78
2023-01-27T23:04:25.008Z,100339.41
2023-01-27T23:14:26.393Z,100336.09
2023-01-27T23:24:27.838Z,100340.53
2023-01-27T23:34:29.377Z,100344.19
2023-01-27T23:44:30.827Z,100345.94
2023-01-27T23:54:32.465Z,100342.69
